createdAt,value
2022-08-02T00:00:55.660Z,2.20
2022-08-02T00:03:24.423Z,1.93
2022-08-02T00:05:53.720Z,2.20
2022-08-02T00:08:21.820Z,2.43
2022-08-02T00:10:48.996Z,2.37
2022-08-02T00:13:15.601Z,2.20
2022-08-02T00:15:42.277Z,2.30
2022-08-02T00:18:09.126Z,2.20
2022-08-02T00:20:35.778Z,2.20
2022-08-02T00:23:02.606Z,2.63
2022-08-02T00:25:29.401Z,2.30
2022-08-02T00:27:56.038Z,2.13
2022-08-02T00:30:22.653Z,2.37
2022-08-02T00:32:49.338Z,2.57
2022-08-02T00:35:15.977Z,2.33
2022-08-02T00:37:42.921Z,2.50
2022-08-02T00:40:10.940Z,2.40
2022-08-02T00:42:38.626Z,2.60
2022-08-02T00:45:05.910Z,1.97
2022-08-02T00:47:32.606Z,2.50
2022-08-02T00:49:59.270Z,2.20
2022-08-02T00:52:26.250Z,1.80
2022-08-02T00:54:52.876Z,2.37
2022-08-02T00:57:19.544Z,2.30
2022-08-02T00:59:46.128Z,2.57
2022-08-02T01:02:12.876Z,2.53
2022-08-02T01:04:39.708Z,2.20
2022-08-02T01:07:12.855Z,2.50
2022-08-02T01:09:44.494Z,2.33
2022-08-02T01:12:12.140Z,2.30
2022-08-02T01:14:42.110Z,2.07
2022-08-02T01:17:32.340Z,2.13
2022-08-02T01:20:33.115Z,2.27
2022-08-02T01:23:31.321Z,2.10
2022-08-02T01:26:06.944Z,2.20
2022-08-02T01:28:48.735Z,2.30
2022-08-02T01:31:38.683Z,2.23
2022-08-02T01:34:32.431Z,1.93
2022-08-02T01:37:03.650Z,2.70
2022-08-02T01:39:34.094Z,2.50
2022-08-02T01:42:02.945Z,2.40
2022-08-02T01:44:34.544Z,2.40
2022-08-02T01:47:06.525Z,2.73
2022-08-02T01:49:35.919Z,2.20
2022-08-02T01:52:22.528Z,2.73
2022-08-02T01:55:02.970Z,2.60
2022-08-02T01:57:45.625Z,2.30
2022-08-02T02:00:13.069Z,2.00
2022-08-02T02:02:43.830Z,2.30
2022-08-02T02:05:14.873Z,2.57
2022-08-02T02:07:43.581Z,2.00
2022-08-02T02:10:14.521Z,2.30
2022-08-02T02:12:44.164Z,2.20
2022-08-02T02:15:12.765Z,2.40
2022-08-02T02:17:50.563Z,2.87
2022-08-02T02:20:30.822Z,2.50
2022-08-02T02:22:58.886Z,2.30
2022-08-02T02:25:36.111Z,2.33
2022-08-02T02:28:24.838Z,2.63
2022-08-02T02:31:00.329Z,1.83
2022-08-02T02:33:30.587Z,3.20
2022-08-02T02:35:59.110Z,3.03
2022-08-02T02:38:28.411Z,2.50
2022-08-02T02:40:56.958Z,2.47
2022-08-02T02:43:27.973Z,2.60
2022-08-02T02:45:56.325Z,2.63
2022-08-02T02:48:23.460Z,2.03
2022-08-02T02:50:51.273Z,2.30
2022-08-02T02:53:19.546Z,2.20
2022-08-02T02:56:01.956Z,2.50
2022-08-02T02:58:31.093Z,2.30
2022-08-02T03:01:16.584Z,1.97
2022-08-02T03:03:45.648Z,2.47
2022-08-02T03:06:15.307Z,2.60
2022-08-02T03:08:43.078Z,2.50
2022-08-02T03:11:10.994Z,2.00
2022-08-02T03:13:38.865Z,2.20
2022-08-02T03:16:05.862Z,2.70
2022-08-02T03:18:37.986Z,2.03
2022-08-02T03:21:08.370Z,2.37
2022-08-02T03:23:35.533Z,2.53
2022-08-02T03:26:02.710Z,2.77
2022-08-02T03:28:29.754Z,2.63
2022-08-02T03:30:56.867Z,2.70
2022-08-02T03:33:25.547Z,2.83
2022-08-02T03:35:55.077Z,2.47
2022-08-02T03:38:24.057Z,2.40
2022-08-02T03:40:56.111Z,3.13
2022-08-02T03:43:23.749Z,2.83
2022-08-02T03:45:56.712Z,3.10
2022-08-02T03:48:31.806Z,2.77
2022-08-02T03:51:01.798Z,2.83
2022-08-02T03:53:28.893Z,2.70
2022-08-02T03:55:56.080Z,3.20
2022-08-02T03:58:24.189Z,2.77
2022-08-02T04:00:54.638Z,3.27
2022-08-02T04:03:21.646Z,3.40
2022-08-02T04:06:03.896Z,3.13
2022-08-02T04:08:37.644Z,2.63
2022-08-02T04:11:24.427Z,3.07
2022-08-02T04:13:51.788Z,2.60
2022-08-02T04:16:23.646Z,2.50
2022-08-02T04:18:57.908Z,2.90
2022-08-02T04:21:27.212Z,2.90
2022-08-02T04:24:18.645Z,2.77
2022-08-02T04:26:48.808Z,2.50
2022-08-02T04:29:18.357Z,2.77
2022-08-02T04:31:45.744Z,2.90
2022-08-02T04:34:15.433Z,3.03
2022-08-02T04:36:42.970Z,2.73
2022-08-02T04:39:09.763Z,2.90
2022-08-02T04:41:43.952Z,2.70
2022-08-02T04:44:11.349Z,3.23
2022-08-02T04:46:38.628Z,2.50
2022-08-02T04:49:05.733Z,3.03
2022-08-02T04:51:40.381Z,3.33
2022-08-02T04:54:09.972Z,2.80
2022-08-02T04:56:37.976Z,2.63
2022-08-02T04:59:05.455Z,2.60
2022-08-02T05:01:32.385Z,2.40
2022-08-02T05:03:59.363Z,2.53
2022-08-02T05:06:25.983Z,2.77
2022-08-02T05:08:53.602Z,2.77
2022-08-02T05:11:34.662Z,3.30
2022-08-02T05:14:04.926Z,2.60
2022-08-02T05:16:32.288Z,2.87
2022-08-02T05:19:02.704Z,2.23
2022-08-02T05:21:30.218Z,2.83
2022-08-02T05:23:56.875Z,2.30
2022-08-02T05:26:23.517Z,2.77
2022-08-02T05:28:50.133Z,2.40
2022-08-02T05:31:16.726Z,2.60
2022-08-02T05:33:43.304Z,2.33
2022-08-02T05:36:10.003Z,2.60
2022-08-02T05:38:37.918Z,2.27
2022-08-02T05:41:05.762Z,2.80
2022-08-02T05:43:32.989Z,2.50
2022-08-02T05:45:59.737Z,2.10
2022-08-02T05:48:31.233Z,2.80
2022-08-02T05:51:05.762Z,2.57
2022-08-02T05:53:49.667Z,2.47
2022-08-02T05:56:33.290Z,2.70
2022-08-02T05:59:04.178Z,2.17
2022-08-02T06:01:37.790Z,2.53
2022-08-02T06:04:09.534Z,2.10
2022-08-02T06:06:37.679Z,2.53
2022-08-02T06:09:10.166Z,3.10
2022-08-02T06:11:39.902Z,2.00
2022-08-02T06:14:07.686Z,1.80
2022-08-02T06:16:36.862Z,2.00
2022-08-02T06:19:09.606Z,1.90
2022-08-02T06:22:31.968Z,1.67
2022-08-02T06:24:26.328Z,2.43
2022-08-02T06:26:55.219Z,2.10
2022-08-02T06:29:23.613Z,2.40
2022-08-02T06:31:53.148Z,2.40
2022-08-02T06:34:19.750Z,2.40
2022-08-02T06:36:55.333Z,1.60
2022-08-02T06:39:34.430Z,1.40
2022-08-02T06:42:06.488Z,1.87
2022-08-02T06:44:53.137Z,1.87
2022-08-02T06:47:20.981Z,1.90
2022-08-02T06:49:52.303Z,1.67
2022-08-02T06:52:34.044Z,1.70
2022-08-02T06:55:02.602Z,1.60
2022-08-02T06:57:30.225Z,2.57
2022-08-02T06:59:58.261Z,1.90
2022-08-02T07:02:24.933Z,1.85
2022-08-02T07:04:51.597Z,1.67
2022-08-02T07:07:18.468Z,1.60
2022-08-02T07:09:56.214Z,1.48
2022-08-02T07:12:28.690Z,1.48
2022-08-02T07:14:55.291Z,1.70
2022-08-02T07:17:21.986Z,1.48
2022-08-02T07:19:48.615Z,1.90
2022-08-02T07:22:15.634Z,1.50
2022-08-02T07:24:42.569Z,1.55
2022-08-02T07:27:11.638Z,1.38
2022-08-02T07:29:45.057Z,1.63
2022-08-02T07:32:13.193Z,1.67
2022-08-02T07:34:40.146Z,1.60
2022-08-02T07:37:10.509Z,1.58
2022-08-02T07:39:51.353Z,1.35
2022-08-02T07:42:18.864Z,1.80
2022-08-02T07:44:49.146Z,2.13
2022-08-02T07:47:16.464Z,2.42
2022-08-02T07:49:43.045Z,1.80
2022-08-02T07:52:10.516Z,1.73
2022-08-02T07:54:37.372Z,1.83
2022-08-02T07:57:04.315Z,1.50
2022-08-02T07:59:31.203Z,1.88
2022-08-02T08:01:57.911Z,1.90
2022-08-02T08:04:24.696Z,1.88
2022-08-02T08:06:52.667Z,1.60
2022-08-02T08:09:19.922Z,1.67
2022-08-02T08:11:46.598Z,1.75
2022-08-02T08:14:16.906Z,1.30
2022-08-02T08:16:44.117Z,1.85
2022-08-02T08:19:10.777Z,1.30
2022-08-02T08:21:37.374Z,1.45
2022-08-02T08:24:04.681Z,1.77
2022-08-02T08:26:31.422Z,1.80
2022-08-02T08:28:58.034Z,1.60
2022-08-02T08:31:24.632Z,1.33
2022-08-02T08:33:51.422Z,1.58
2022-08-02T08:36:18.114Z,1.38
2022-08-02T08:38:45.093Z,1.40
2022-08-02T08:41:11.733Z,1.30
2022-08-02T08:43:38.419Z,1.30
2022-08-02T08:46:06.471Z,1.48
2022-08-02T08:48:37.378Z,1.10
2022-08-02T08:51:23.216Z,1.52
2022-08-02T08:53:54.058Z,1.05
2022-08-02T08:56:20.882Z,1.15
2022-08-02T08:58:47.652Z,1.50
2022-08-02T09:01:16.618Z,1.42
2022-08-02T09:03:44.395Z,1.63
2022-08-02T09:06:11.025Z,1.55
2022-08-02T09:08:37.738Z,1.20
2022-08-02T09:11:14.202Z,1.27
2022-08-02T09:13:58.829Z,1.40
2022-08-02T09:16:37.401Z,1.17
2022-08-02T09:19:25.293Z,1.23
2022-08-02T09:22:01.143Z,1.27
2022-08-02T09:24:27.837Z,1.10
2022-08-02T09:26:58.722Z,2.17
2022-08-02T09:29:26.170Z,1.35
2022-08-02T09:32:02.944Z,1.00
2022-08-02T09:34:49.950Z,1.00
2022-08-02T09:37:24.766Z,0.88
2022-08-02T09:39:51.516Z,1.08
2022-08-02T09:42:25.105Z,1.15
2022-08-02T09:45:00.638Z,1.40
2022-08-02T09:47:28.985Z,1.10
2022-08-02T09:49:58.382Z,1.25
2022-08-02T09:52:43.225Z,1.48
2022-08-02T09:55:11.733Z,1.23
2022-08-02T09:57:38.479Z,1.00
2022-08-02T10:00:15.036Z,1.30
2022-08-02T10:03:07.710Z,1.17
2022-08-02T10:05:56.192Z,1.00
2022-08-02T10:08:32.887Z,1.05
2022-08-02T10:11:03.482Z,1.20
2022-08-02T10:13:35.730Z,1.27
2022-08-02T10:16:03.264Z,1.48
2022-08-02T10:18:39.855Z,1.35
2022-08-02T10:21:30.671Z,1.05
2022-08-02T10:24:05.366Z,1.20
2022-08-02T10:26:33.021Z,1.40
2022-08-02T10:28:59.682Z,0.93
2022-08-02T10:31:33.433Z,1.25
2022-08-02T10:34:03.023Z,1.35
2022-08-02T10:36:33.655Z,1.25
2022-08-02T10:39:01.862Z,1.23
2022-08-02T10:41:46.913Z,1.13
2022-08-02T10:44:25.022Z,1.20
2022-08-02T10:46:52.552Z,1.17
2022-08-02T10:49:39.280Z,1.15
2022-08-02T10:52:08.308Z,0.93
2022-08-02T10:54:38.479Z,1.30
2022-08-02T10:57:16.139Z,0.93
2022-08-02T10:59:43.709Z,1.13
2022-08-02T11:02:11.281Z,1.10
2022-08-02T11:04:43.903Z,1.20
2022-08-02T11:07:19.273Z,1.08
2022-08-02T11:09:48.486Z,1.20
2022-08-02T11:12:20.363Z,1.10
2022-08-02T11:15:00.034Z,1.00
2022-08-02T11:17:28.900Z,1.27
2022-08-02T11:20:10.826Z,1.00
2022-08-02T11:22:38.807Z,1.20
2022-08-02T11:25:23.780Z,1.25
2022-08-02T11:27:53.340Z,0.95
2022-08-02T11:30:26.682Z,1.15
2022-08-02T11:32:58.470Z,1.10
2022-08-02T11:35:32.861Z,1.10
2022-08-02T11:38:19.185Z,1.20
2022-08-02T11:40:47.667Z,1.40
2022-08-02T11:43:23.358Z,1.30
2022-08-02T11:45:53.919Z,1.05
2022-08-02T11:48:50.143Z,1.00
2022-08-02T11:51:17.977Z,1.17
2022-08-02T11:53:53.390Z,1.20
2022-08-02T11:56:28.335Z,1.27
2022-08-02T11:59:21.837Z,1.70
2022-08-02T12:01:48.943Z,1.30
2022-08-02T12:04:22.676Z,1.30
2022-08-02T12:06:56.137Z,1.42
2022-08-02T12:09:23.555Z,1.73
2022-08-02T12:11:51.005Z,1.52
2022-08-02T12:14:18.204Z,1.60
2022-08-02T12:17:03.912Z,1.60
2022-08-02T12:19:30.602Z,1.52
2022-08-02T12:22:18.415Z,1.48
2022-08-02T12:24:50.871Z,1.83
2022-08-02T12:27:43.430Z,1.92
2022-08-02T12:30:12.194Z,1.52
2022-08-02T12:32:40.129Z,2.15
2022-08-02T12:35:07.095Z,1.67
2022-08-02T12:37:34.614Z,1.92
2022-08-02T12:40:25.651Z,1.70
2022-08-02T12:42:56.333Z,1.73
2022-08-02T12:45:23.407Z,1.33
2022-08-02T12:47:53.908Z,2.55
2022-08-02T12:50:29.938Z,1.60
2022-08-02T12:53:14.941Z,1.30
2022-08-02T12:56:00.678Z,3.03
2022-08-02T12:58:29.569Z,1.70
2022-08-02T13:01:01.246Z,1.42
2022-08-02T13:04:11.466Z,2.10
2022-08-02T13:06:42.275Z,1.63
2022-08-02T13:09:02.425Z,1.80
2022-08-02T13:11:29.436Z,4.63
2022-08-02T13:13:56.145Z,1.80
2022-08-02T13:16:30.729Z,1.60
2022-08-02T13:18:58.378Z,3.10
2022-08-02T13:21:41.306Z,1.65
2022-08-02T13:24:32.766Z,1.70
2022-08-02T13:27:05.206Z,1.92
2022-08-02T13:29:36.361Z,1.58
2022-08-02T13:32:03.294Z,2.00
2022-08-02T13:34:30.003Z,2.00
2022-08-02T13:36:56.594Z,2.30
2022-08-02T13:39:23.206Z,2.03
2022-08-02T13:41:49.938Z,1.50
2022-08-02T13:44:16.582Z,1.50
2022-08-02T13:46:45.301Z,1.73
2022-08-02T13:49:18.943Z,2.13
2022-08-02T13:51:49.884Z,2.25
2022-08-02T13:54:17.104Z,1.88
2022-08-02T13:56:43.992Z,1.70
2022-08-02T13:59:21.999Z,1.70
2022-08-02T14:01:58.647Z,1.73
2022-08-02T14:04:25.896Z,1.83
2022-08-02T14:06:52.915Z,1.77
2022-08-02T14:09:19.791Z,2.28
2022-08-02T14:11:47.242Z,5.03
2022-08-02T14:14:16.457Z,2.90
2022-08-02T14:16:47.079Z,2.00
2022-08-02T14:19:16.609Z,1.92
2022-08-02T14:21:48.621Z,1.70
2022-08-02T14:24:20.601Z,2.17
2022-08-02T14:26:49.766Z,2.38
2022-08-02T14:29:17.035Z,2.30
2022-08-02T14:31:44.975Z,2.35
2022-08-02T14:34:12.720Z,1.92
2022-08-02T14:36:39.369Z,2.05
2022-08-02T14:39:06.252Z,2.03
2022-08-02T14:41:58.311Z,2.17
2022-08-02T14:44:23.254Z,2.30
2022-08-02T14:46:51.516Z,2.38
2022-08-02T14:49:24.795Z,2.00
2022-08-02T14:51:57.133Z,2.10
2022-08-02T14:54:31.010Z,2.20
2022-08-02T14:57:00.036Z,2.22
2022-08-02T14:59:27.269Z,2.83
2022-08-02T15:01:54.141Z,1.98
2022-08-02T15:04:20.855Z,2.08
2022-08-02T15:06:47.530Z,1.70
2022-08-02T15:09:14.294Z,1.52
2022-08-02T15:11:47.553Z,2.13
2022-08-02T15:14:16.165Z,1.83
2022-08-02T15:16:56.457Z,1.60
2022-08-02T15:19:23.596Z,3.00
2022-08-02T15:21:54.581Z,1.55
2022-08-02T15:24:23.874Z,1.98
2022-08-02T15:26:50.781Z,1.77
2022-08-02T15:29:18.317Z,2.63
2022-08-02T15:31:45.093Z,2.13
2022-08-02T15:34:11.764Z,1.40
2022-08-02T15:36:38.412Z,1.60
2022-08-02T15:39:05.315Z,1.83
2022-08-02T15:41:32.367Z,2.20
2022-08-02T15:44:01.583Z,1.70
2022-08-02T15:46:32.176Z,2.10
2022-08-02T15:48:59.923Z,1.88
2022-08-02T15:51:27.066Z,1.65
2022-08-02T15:53:53.791Z,2.42
2022-08-02T15:56:23.873Z,1.80
2022-08-02T15:58:51.815Z,1.40
2022-08-02T16:01:23.847Z,1.70
2022-08-02T16:03:50.698Z,1.80
2022-08-02T16:06:17.463Z,1.63
2022-08-02T16:08:53.439Z,1.52
2022-08-02T16:11:22.288Z,2.05
2022-08-02T16:13:55.305Z,2.28
2022-08-02T16:16:23.917Z,1.90
2022-08-02T16:18:50.859Z,1.95
2022-08-02T16:21:17.583Z,2.03
2022-08-02T16:23:58.719Z,1.60
2022-08-02T16:26:34.065Z,1.90
2022-08-02T16:29:02.572Z,1.85
2022-08-02T16:31:30.111Z,1.85
2022-08-02T16:33:57.395Z,1.75
2022-08-02T16:36:25.345Z,1.63
2022-08-02T16:38:53.609Z,1.52
2022-08-02T16:41:20.827Z,1.70
2022-08-02T16:43:47.654Z,1.50
2022-08-02T16:46:14.697Z,1.50
2022-08-02T16:48:42.113Z,1.60
2022-08-02T16:51:18.689Z,1.90
2022-08-02T16:53:59.247Z,1.50
2022-08-02T16:56:28.135Z,1.58
2022-08-02T16:58:55.058Z,1.70
2022-08-02T17:01:27.068Z,1.60
2022-08-02T17:03:56.468Z,1.80
2022-08-02T17:06:26.389Z,1.77
2022-08-02T17:08:56.385Z,1.55
2022-08-02T17:11:23.935Z,1.70
2022-08-02T17:13:51.469Z,1.48
2022-08-02T17:16:20.906Z,1.52
2022-08-02T17:18:53.758Z,1.50
2022-08-02T17:21:20.406Z,1.58
2022-08-02T17:24:04.854Z,1.50
2022-08-02T17:26:34.124Z,1.40
2022-08-02T17:29:16.078Z,1.60
2022-08-02T17:32:02.396Z,1.42
2022-08-02T17:34:31.399Z,1.50
2022-08-02T17:36:57.999Z,1.40
2022-08-02T17:39:24.622Z,1.67
2022-08-02T17:42:00.914Z,1.50
2022-08-02T17:44:37.781Z,1.77
2022-08-02T17:47:11.743Z,1.50
2022-08-02T17:49:43.044Z,1.40
2022-08-02T17:52:51.738Z,1.83
2022-08-02T17:55:03.405Z,1.60
2022-08-02T17:57:30.712Z,1.50
2022-08-02T18:00:17.970Z,1.50
2022-08-02T18:02:52.618Z,1.40
2022-08-02T18:05:21.754Z,1.60
2022-08-02T18:07:49.512Z,1.58
2022-08-02T18:10:18.623Z,1.88
2022-08-02T18:12:45.909Z,1.63
2022-08-02T18:15:14.736Z,1.85
2022-08-02T18:17:42.024Z,1.63
2022-08-02T18:20:28.357Z,1.67
2022-08-02T18:22:55.700Z,1.88
2022-08-02T18:25:37.415Z,1.42
2022-08-02T18:28:10.743Z,1.40
2022-08-02T18:30:37.385Z,1.60
2022-08-02T18:33:57.053Z,1.50
2022-08-02T18:35:52.476Z,1.65
2022-08-02T18:38:22.503Z,1.60
2022-08-02T18:40:51.109Z,1.70
2022-08-02T18:43:18.726Z,1.50
2022-08-02T18:46:06.787Z,1.55
2022-08-02T18:48:37.358Z,1.55
2022-08-02T18:51:06.386Z,1.70
2022-08-02T18:53:41.911Z,1.50
2022-08-02T18:56:19.883Z,1.77
2022-08-02T18:58:55.797Z,1.50
2022-08-02T19:01:32.158Z,1.70
2022-08-02T19:04:01.432Z,1.88
2022-08-02T19:06:29.104Z,1.70
2022-08-02T19:09:05.415Z,1.63
2022-08-02T19:11:37.227Z,1.58
2022-08-02T19:14:04.166Z,1.92
2022-08-02T19:16:36.887Z,1.73
2022-08-02T19:19:05.773Z,1.50
2022-08-02T19:22:18.904Z,1.85
2022-08-02T19:24:19.365Z,1.90
2022-08-02T19:26:51.641Z,1.90
2022-08-02T19:29:43.454Z,1.90
2022-08-02T19:32:08.629Z,2.10
2022-08-02T19:34:55.737Z,2.10
2022-08-02T19:37:22.387Z,2.27
2022-08-02T19:39:49.014Z,1.70
2022-08-02T19:42:16.885Z,2.13
2022-08-02T19:44:45.675Z,1.90
2022-08-02T19:47:19.364Z,2.00
2022-08-02T19:49:48.832Z,2.10
2022-08-02T19:52:21.652Z,1.60
2022-08-02T19:57:39.001Z,2.50
2022-08-02T20:00:11.386Z,2.03
2022-08-02T20:02:38.383Z,2.60
2022-08-02T20:05:16.442Z,2.13
2022-08-02T20:07:56.152Z,2.23
2022-08-02T20:10:24.712Z,2.40
2022-08-02T20:12:53.503Z,2.27
2022-08-02T20:15:20.453Z,2.10
2022-08-02T20:17:49.170Z,2.07
2022-08-02T20:20:17.333Z,2.20
2022-08-02T20:25:54.221Z,1.97
2022-08-02T20:28:21.954Z,2.57
2022-08-02T20:30:48.833Z,2.50
2022-08-02T20:33:20.989Z,2.67
2022-08-02T20:35:48.418Z,2.70
2022-08-02T20:38:16.322Z,2.57
2022-08-02T20:40:43.381Z,2.40
2022-08-02T20:43:10.544Z,2.50
2022-08-02T20:45:37.197Z,2.60
2022-08-02T20:48:04.074Z,2.30
2022-08-02T20:50:49.250Z,2.50
2022-08-02T20:53:23.594Z,2.80
2022-08-02T20:55:54.022Z,2.40
2022-08-02T21:01:08.421Z,2.53
2022-08-02T21:03:39.070Z,2.97
2022-08-02T21:06:11.261Z,2.40
2022-08-02T21:08:41.963Z,2.73
2022-08-02T21:11:14.029Z,2.83
2022-08-02T21:13:46.442Z,2.80
2022-08-02T21:16:18.337Z,2.97
2022-08-02T21:18:49.019Z,2.53
2022-08-02T21:21:16.622Z,2.60
2022-08-02T21:23:48.659Z,2.73
2022-08-02T21:26:27.950Z,2.90
2022-08-02T21:28:55.585Z,2.87
2022-08-02T21:31:22.295Z,2.80
2022-08-02T21:33:58.632Z,3.27
2022-08-02T21:36:33.134Z,3.20
2022-08-02T21:39:05.948Z,2.80
2022-08-02T21:41:38.544Z,2.70
2022-08-02T21:44:08.495Z,2.30
2022-08-02T21:46:35.126Z,2.77
2022-08-02T21:49:02.183Z,2.57
2022-08-02T21:51:29.059Z,2.70
2022-08-02T21:54:18.574Z,2.50
2022-08-02T21:56:48.461Z,2.50
2022-08-02T21:59:17.298Z,2.57
2022-08-02T22:01:52.924Z,2.57
2022-08-02T22:04:20.871Z,2.67
2022-08-02T22:06:49.064Z,2.50
2022-08-02T22:09:17.645Z,2.37
2022-08-02T22:12:05.177Z,2.47
2022-08-02T22:14:37.301Z,2.23
2022-08-02T22:17:08.631Z,2.23
2022-08-02T22:19:36.326Z,2.60
2022-08-02T22:22:03.029Z,2.13
2022-08-02T22:27:16.592Z,2.40
2022-08-02T22:29:46.537Z,2.20
2022-08-02T22:34:59.920Z,1.77
2022-08-02T22:38:16.536Z,2.43
2022-08-02T22:40:13.942Z,2.40
2022-08-02T22:42:40.538Z,1.93
2022-08-02T22:45:09.484Z,2.53
2022-08-02T22:47:38.821Z,2.30
2022-08-02T22:50:17.760Z,2.30
2022-08-02T22:52:46.909Z,2.40
2022-08-02T22:55:17.509Z,2.40
2022-08-02T22:57:56.656Z,2.37
2022-08-02T22:58:53.721Z,2.27
2022-08-02T22:59:05.754Z,2.70
2022-08-02T22:59:05.857Z,2.67
2022-08-02T22:59:12.093Z,2.10
2022-08-02T22:59:12.690Z,2.40
2022-08-02T23:00:25.368Z,2.10
2022-08-02T23:02:52.398Z,2.07
2022-08-02T23:05:20.772Z,2.43
2022-08-02T23:07:47.448Z,2.20
2022-08-02T23:10:14.276Z,2.17
2022-08-02T23:12:40.914Z,2.03
2022-08-02T23:15:08.204Z,1.90
2022-08-02T23:17:53.253Z,2.47
2022-08-02T23:20:19.867Z,1.93
2022-08-02T23:22:46.504Z,2.20
2022-08-02T23:25:14.476Z,2.37
2022-08-02T23:27:50.675Z,1.73
2022-08-02T23:30:18.321Z,2.07
2022-08-02T23:32:46.904Z,1.87
2022-08-02T23:35:17.242Z,2.30
2022-08-02T23:37:59.916Z,2.07
2022-08-02T23:40:38.829Z,1.83
2022-08-02T23:43:14.010Z,1.90
2022-08-02T23:45:42.779Z,1.70
2022-08-02T23:48:09.403Z,2.07
2022-08-02T23:50:36.013Z,2.00
2022-08-02T23:53:02.604Z,2.00
2022-08-02T23:55:29.329Z,1.97
2022-08-02T23:57:55.897Z,1.80
